createdAt,value
2023-05-17T00:01:48.478Z,13.05
2023-05-17T00:04:15.152Z,13.06
2023-05-17T00:06:41.996Z,13.08
2023-05-17T00:09:09.164Z,13.09
2023-05-17T00:11:35.940Z,13.10
2023-05-17T00:14:02.567Z,13.12
2023-05-17T00:16:29.247Z,13.13
2023-05-17T00:18:55.990Z,13.11
2023-05-17T00:21:22.719Z,13.09
2023-05-17T00:23:49.398Z,13.08
2023-05-17T00:26:16.051Z,13.08
2023-05-17T00:28:43.618Z,13.09
2023-05-17T00:31:10.541Z,13.12
2023-05-17T00:33:37.248Z,13.15
2023-05-17T00:36:04.436Z,13.18
2023-05-17T00:38:31.192Z,13.22
2023-05-17T00:40:57.869Z,13.24
2023-05-17T00:43:26.333Z,13.28
2023-05-17T00:45:53.187Z,13.30
2023-05-17T00:48:25.672Z,13.32
2023-05-17T00:50:53.654Z,13.33
2023-05-17T00:53:20.420Z,13.36
2023-05-17T00:55:47.096Z,13.39
2023-05-17T00:58:14.402Z,13.42
2023-05-17T01:00:41.194Z,13.44
2023-05-17T01:03:08.276Z,13.45
2023-05-17T01:05:35.096Z,13.48
2023-05-17T01:08:02.866Z,13.48
2023-05-17T01:10:41.591Z,13.49
2023-05-17T01:13:16.003Z,13.50
2023-05-17T01:15:45.756Z,13.50
2023-05-17T01:18:22.043Z,13.48
2023-05-17T01:20:48.877Z,13.46
2023-05-17T01:23:34.401Z,13.43
2023-05-17T01:26:10.952Z,13.41
2023-05-17T01:28:38.365Z,13.38
2023-05-17T01:31:05.123Z,13.36
2023-05-17T01:33:32.007Z,13.35
2023-05-17T01:35:58.854Z,13.31
2023-05-17T01:38:25.532Z,13.28
2023-05-17T01:40:57.295Z,13.26
2023-05-17T01:43:52.257Z,13.24
2023-05-17T01:46:18.911Z,13.23
2023-05-17T01:48:50.230Z,13.20
2023-05-17T01:51:18.984Z,13.18
2023-05-17T01:53:51.559Z,13.16
2023-05-17T01:56:22.403Z,13.17
2023-05-17T01:58:49.152Z,13.15
2023-05-17T02:01:16.416Z,13.13
2023-05-17T02:03:43.153Z,13.08
2023-05-17T02:06:09.983Z,13.05
2023-05-17T02:08:36.680Z,13.05
2023-05-17T02:11:03.659Z,13.05
2023-05-17T02:13:30.890Z,13.05
2023-05-17T02:16:01.702Z,13.05
2023-05-17T02:18:29.107Z,13.06
2023-05-17T02:20:56.232Z,13.06
2023-05-17T02:23:25.025Z,13.04
2023-05-17T02:25:52.694Z,12.97
2023-05-17T02:28:19.442Z,12.93
2023-05-17T02:30:46.247Z,12.91
2023-05-17T02:33:13.503Z,12.87
2023-05-17T02:35:40.370Z,12.83
2023-05-17T02:38:07.082Z,12.77
2023-05-17T02:40:33.765Z,12.72
2023-05-17T02:43:02.838Z,12.69
2023-05-17T02:45:29.721Z,12.69
2023-05-17T02:47:56.618Z,12.71
2023-05-17T02:50:23.289Z,12.73
2023-05-17T02:52:50.917Z,12.78
2023-05-17T02:55:17.846Z,12.83
2023-05-17T02:57:44.785Z,12.89
2023-05-17T03:00:11.947Z,12.93
2023-05-17T03:02:38.760Z,12.94
2023-05-17T03:05:06.627Z,12.93
2023-05-17T03:07:33.320Z,12.93
2023-05-17T03:10:00.152Z,12.95
2023-05-17T03:12:30.946Z,12.97
2023-05-17T03:14:57.856Z,12.96
2023-05-17T03:17:24.652Z,13.00
2023-05-17T03:19:51.509Z,13.04
2023-05-17T03:22:18.376Z,13.12
2023-05-17T03:24:45.008Z,13.21
2023-05-17T03:27:11.833Z,13.30
2023-05-17T03:29:39.827Z,13.40
2023-05-17T03:32:06.992Z,13.47
2023-05-17T03:34:33.961Z,13.51
2023-05-17T03:37:01.404Z,13.51
2023-05-17T03:39:28.090Z,13.49
2023-05-17T03:41:55.019Z,13.52
2023-05-17T03:44:22.540Z,13.54
2023-05-17T03:46:49.730Z,13.57
2023-05-17T03:49:17.539Z,13.62
2023-05-17T03:51:45.279Z,13.70
2023-05-17T03:54:12.062Z,13.77
2023-05-17T03:56:38.801Z,13.83
2023-05-17T03:59:05.663Z,13.88
2023-05-17T04:01:33.330Z,13.92
2023-05-17T04:04:01.400Z,13.97
2023-05-17T04:06:28.402Z,14.03
2023-05-17T04:08:55.802Z,14.11
2023-05-17T04:11:24.432Z,14.21
2023-05-17T04:13:51.776Z,14.31
2023-05-17T04:16:18.582Z,14.43
2023-05-17T04:18:45.763Z,14.52
2023-05-17T04:21:12.838Z,14.57
2023-05-17T04:23:39.708Z,14.65
2023-05-17T04:26:06.384Z,14.73
2023-05-17T04:28:35.489Z,14.82
2023-05-17T04:31:02.803Z,14.91
2023-05-17T04:33:29.718Z,15.00
2023-05-17T04:35:57.331Z,15.07
2023-05-17T04:38:25.194Z,15.12
2023-05-17T04:40:52.141Z,15.14
2023-05-17T04:43:19.264Z,15.15
2023-05-17T04:45:46.819Z,15.15
2023-05-17T04:48:15.044Z,15.16
2023-05-17T04:50:45.652Z,15.16
2023-05-17T04:53:12.307Z,15.16
2023-05-17T04:55:39.064Z,15.17
2023-05-17T04:58:05.933Z,15.19
2023-05-17T05:00:33.454Z,15.23
2023-05-17T05:03:05.127Z,15.29
2023-05-17T05:05:32.261Z,15.38
2023-05-17T05:07:59.054Z,15.46
2023-05-17T05:10:28.840Z,15.50
2023-05-17T05:12:56.240Z,15.51
2023-05-17T05:15:23.315Z,15.54
2023-05-17T05:17:54.825Z,15.57
2023-05-17T05:20:21.769Z,15.63
2023-05-17T05:22:48.403Z,15.69
2023-05-17T05:25:17.102Z,15.76
2023-05-17T05:27:44.544Z,15.83
2023-05-17T05:30:12.466Z,15.86
2023-05-17T05:32:39.440Z,15.89
2023-05-17T05:35:07.022Z,15.94
2023-05-17T05:37:33.977Z,16.02
2023-05-17T05:40:01.122Z,16.13
2023-05-17T05:42:29.717Z,16.24
2023-05-17T05:44:56.384Z,16.33
2023-05-17T05:47:23.578Z,16.44
2023-05-17T05:49:50.665Z,16.57
2023-05-17T05:52:17.567Z,16.68
2023-05-17T05:54:45.152Z,16.79
2023-05-17T05:57:11.836Z,16.87
2023-05-17T05:59:39.496Z,16.95
2023-05-17T06:02:06.826Z,17.05
2023-05-17T06:04:44.475Z,17.14
2023-05-17T06:07:13.058Z,17.24
2023-05-17T06:09:39.702Z,17.35
2023-05-17T06:12:06.530Z,17.45
2023-05-17T06:14:33.211Z,17.55
2023-05-17T06:16:59.863Z,17.67
2023-05-17T06:19:26.659Z,17.81
2023-05-17T06:21:53.566Z,17.93
2023-05-17T06:24:20.300Z,18.03
2023-05-17T06:26:49.880Z,18.12
2023-05-17T06:29:16.563Z,18.20
2023-05-17T06:31:43.228Z,18.30
2023-05-17T06:34:10.008Z,18.42
2023-05-17T06:36:38.465Z,18.52
2023-05-17T06:39:05.566Z,18.62
2023-05-17T06:41:32.307Z,18.74
2023-05-17T06:43:59.006Z,18.86
2023-05-17T06:46:28.472Z,18.98
2023-05-17T06:48:55.806Z,19.11
2023-05-17T06:51:22.562Z,19.23
2023-05-17T06:53:50.370Z,19.34
2023-05-17T06:56:17.124Z,19.46
2023-05-17T06:58:43.777Z,19.57
2023-05-17T07:01:10.458Z,19.67
2023-05-17T07:03:40.066Z,19.79
2023-05-17T07:06:06.986Z,19.93
2023-05-17T07:08:34.873Z,20.05
2023-05-17T07:11:02.991Z,20.18
2023-05-17T07:13:30.286Z,20.38
2023-05-17T07:15:57.014Z,20.62
2023-05-17T07:18:23.780Z,20.84
2023-05-17T07:20:50.788Z,21.02
2023-05-17T07:23:18.236Z,21.22
2023-05-17T07:25:46.352Z,21.40
2023-05-17T07:28:13.043Z,21.57
2023-05-17T07:30:39.733Z,21.72
2023-05-17T07:33:06.369Z,21.83
2023-05-17T07:35:33.189Z,21.98
2023-05-17T07:37:59.822Z,22.14
2023-05-17T07:40:26.465Z,22.32
2023-05-17T07:42:53.178Z,22.48
2023-05-17T07:45:19.819Z,22.62
2023-05-17T07:47:46.721Z,22.76
2023-05-17T07:50:13.847Z,22.90
2023-05-17T07:52:40.580Z,23.06
2023-05-17T07:55:07.979Z,23.20
2023-05-17T07:57:34.759Z,23.33
2023-05-17T08:00:01.477Z,23.45
2023-05-17T08:02:39.200Z,23.57
2023-05-17T08:05:07.565Z,23.65
2023-05-17T08:07:34.550Z,23.72
2023-05-17T08:10:01.314Z,23.80
2023-05-17T08:12:28.361Z,23.89
2023-05-17T08:14:55.037Z,23.99
2023-05-17T08:17:22.557Z,24.09
2023-05-17T08:19:49.383Z,24.20
2023-05-17T08:22:16.361Z,24.31
2023-05-17T08:24:45.170Z,24.39
2023-05-17T08:27:11.892Z,24.46
2023-05-17T08:29:39.749Z,24.49
2023-05-17T08:32:07.517Z,24.52
2023-05-17T08:34:34.119Z,24.54
2023-05-17T08:37:00.872Z,24.55
2023-05-17T08:39:27.791Z,24.55
2023-05-17T08:41:59.591Z,24.57
2023-05-17T08:44:28.230Z,24.63
2023-05-17T08:46:55.182Z,24.68
2023-05-17T08:49:26.000Z,24.67
2023-05-17T08:51:54.126Z,24.64
2023-05-17T08:54:22.740Z,24.68
2023-05-17T08:56:52.312Z,24.68
2023-05-17T08:59:22.095Z,24.70
2023-05-17T09:01:52.083Z,24.76
2023-05-17T09:04:18.856Z,24.86
2023-05-17T09:06:45.886Z,24.99
2023-05-17T09:09:12.650Z,25.18
2023-05-17T09:13:07.130Z,25.45
2023-05-17T09:15:34.432Z,25.60
2023-05-17T09:18:01.378Z,25.76
2023-05-17T09:20:35.083Z,25.98
2023-05-17T09:23:02.281Z,26.14
2023-05-17T09:25:29.251Z,26.29
2023-05-17T09:28:02.252Z,26.44
2023-05-17T09:30:33.161Z,26.62
2023-05-17T09:33:07.516Z,26.78
2023-05-17T09:35:35.090Z,26.90
2023-05-17T09:38:12.574Z,27.02
2023-05-17T09:40:43.358Z,27.15
2023-05-17T09:43:11.014Z,27.23
2023-05-17T09:45:37.940Z,27.31
2023-05-17T09:48:15.218Z,27.39
2023-05-17T09:50:52.412Z,27.55
2023-05-17T09:53:29.438Z,27.63
2023-05-17T09:55:57.393Z,27.66
2023-05-17T09:58:24.745Z,27.71
2023-05-17T10:01:01.929Z,27.74
2023-05-17T10:03:34.327Z,27.74
2023-05-17T10:06:03.972Z,27.72
2023-05-17T10:08:31.019Z,27.71
2023-05-17T10:11:06.114Z,27.74
2023-05-17T10:13:36.219Z,27.78
2023-05-17T10:16:02.921Z,27.76
2023-05-17T10:18:30.273Z,27.68
2023-05-17T10:20:57.166Z,27.51
2023-05-17T10:23:23.807Z,27.38
2023-05-17T10:25:50.888Z,27.35
2023-05-17T10:28:18.052Z,27.32
2023-05-17T10:30:44.709Z,27.29
2023-05-17T10:33:11.774Z,27.30
2023-05-17T10:35:39.401Z,27.32
2023-05-17T10:38:07.545Z,27.29
2023-05-17T10:40:34.557Z,27.20
2023-05-17T10:43:01.776Z,27.20
2023-05-17T10:45:28.799Z,27.23
2023-05-17T10:47:56.129Z,27.23
2023-05-17T10:50:24.844Z,27.22
2023-05-17T10:52:52.387Z,27.14
2023-05-17T10:55:36.560Z,27.08
2023-05-17T10:58:16.743Z,27.14
2023-05-17T11:00:46.000Z,27.21
2023-05-17T11:03:14.022Z,27.29
2023-05-17T11:06:13.232Z,27.35
2023-05-17T11:09:05.928Z,27.42
2023-05-17T11:11:32.608Z,27.48
2023-05-17T11:14:03.048Z,27.54
2023-05-17T11:16:37.021Z,27.61
2023-05-17T11:19:10.759Z,27.68
2023-05-17T11:21:47.470Z,27.76
2023-05-17T11:24:24.071Z,27.81
2023-05-17T11:26:50.779Z,27.88
2023-05-17T11:29:17.544Z,27.92
2023-05-17T11:31:45.235Z,27.97
2023-05-17T11:34:12.375Z,28.00
2023-05-17T11:36:52.108Z,28.06
2023-05-17T11:39:23.088Z,28.08
2023-05-17T11:41:50.660Z,28.05
2023-05-17T11:44:25.352Z,28.06
2023-05-17T11:46:52.267Z,28.10
2023-05-17T11:49:34.349Z,28.12
2023-05-17T11:52:02.975Z,28.08
2023-05-17T11:54:29.673Z,28.06
2023-05-17T11:56:56.312Z,28.00
2023-05-17T11:59:23.041Z,27.87
2023-05-17T12:01:51.180Z,27.73
2023-05-17T12:04:25.730Z,27.36
2023-05-17T12:06:53.660Z,26.91
2023-05-17T12:09:21.307Z,26.59
2023-05-17T12:11:48.205Z,26.36
2023-05-17T12:14:16.698Z,26.14
2023-05-17T12:16:44.517Z,25.81
2023-05-17T12:19:25.019Z,25.50
2023-05-17T12:21:51.821Z,25.21
2023-05-17T12:24:18.660Z,25.04
2023-05-17T12:26:46.377Z,24.92
2023-05-17T12:29:17.969Z,24.80
2023-05-17T12:31:47.081Z,24.64
2023-05-17T12:34:14.341Z,24.49
2023-05-17T12:36:41.182Z,24.43
2023-05-17T12:39:09.478Z,24.40
2023-05-17T12:41:37.166Z,24.37
2023-05-17T12:44:14.411Z,24.32
2023-05-17T12:46:41.756Z,24.28
2023-05-17T12:49:09.357Z,24.22
2023-05-17T12:51:45.764Z,24.22
2023-05-17T12:54:16.006Z,24.22
2023-05-17T12:56:45.671Z,24.27
2023-05-17T12:59:17.156Z,24.34
2023-05-17T13:01:47.273Z,24.36
2023-05-17T13:04:15.022Z,24.34
2023-05-17T13:06:50.936Z,24.31
2023-05-17T13:09:18.712Z,24.32
2023-05-17T13:11:52.275Z,24.33
2023-05-17T13:14:38.328Z,24.32
2023-05-17T13:17:07.135Z,24.30
2023-05-17T13:19:35.892Z,24.26
2023-05-17T13:22:03.758Z,24.30
2023-05-17T13:24:31.530Z,24.34
2023-05-17T13:26:58.372Z,24.35
2023-05-17T13:29:37.998Z,24.35
2023-05-17T13:32:07.238Z,24.40
2023-05-17T13:34:33.894Z,24.48
2023-05-17T13:37:00.557Z,24.52
2023-05-17T13:39:27.418Z,24.54
2023-05-17T13:41:54.366Z,24.58
2023-05-17T13:44:21.330Z,24.71
2023-05-17T13:46:48.022Z,24.84
2023-05-17T13:49:14.756Z,24.99
2023-05-17T13:51:42.626Z,25.17
2023-05-17T13:54:10.645Z,25.34
2023-05-17T13:56:37.430Z,25.44
2023-05-17T13:59:04.294Z,25.55
2023-05-17T14:01:31.795Z,25.63
2023-05-17T14:04:00.878Z,25.74
2023-05-17T14:06:28.398Z,25.80
2023-05-17T14:08:57.162Z,25.77
2023-05-17T14:11:23.852Z,25.63
2023-05-17T14:13:50.683Z,25.51
2023-05-17T14:16:17.345Z,25.39
2023-05-17T14:18:44.109Z,25.28
2023-05-17T14:21:11.110Z,25.21
2023-05-17T14:23:37.849Z,25.20
2023-05-17T14:26:07.635Z,25.18
2023-05-17T14:28:38.193Z,25.19
2023-05-17T14:31:06.704Z,25.10
2023-05-17T14:33:33.605Z,24.97
2023-05-17T14:36:00.595Z,24.85
2023-05-17T14:38:27.300Z,24.78
2023-05-17T14:40:54.002Z,24.73
2023-05-17T14:43:21.112Z,24.68
2023-05-17T14:45:47.831Z,24.65
2023-05-17T14:48:14.548Z,24.61
2023-05-17T14:50:41.611Z,24.51
2023-05-17T14:53:08.336Z,24.42
2023-05-17T14:55:35.628Z,24.29
2023-05-17T14:58:02.729Z,24.18
2023-05-17T15:00:29.590Z,24.14
2023-05-17T15:02:56.863Z,24.07
2023-05-17T15:05:24.440Z,23.99
2023-05-17T15:07:51.351Z,23.92
2023-05-17T15:10:18.161Z,23.91
2023-05-17T15:12:44.869Z,23.92
2023-05-17T15:15:12.636Z,23.90
2023-05-17T15:17:39.324Z,23.91
2023-05-17T15:20:07.535Z,23.91
2023-05-17T15:22:34.306Z,23.90
2023-05-17T15:25:01.259Z,23.88
2023-05-17T15:27:27.951Z,23.85
2023-05-17T15:29:54.817Z,23.83
2023-05-17T15:32:21.596Z,23.84
2023-05-17T15:34:48.424Z,23.85
2023-05-17T15:37:15.293Z,23.82
2023-05-17T15:39:41.953Z,23.80
2023-05-17T15:42:08.643Z,23.78
2023-05-17T15:44:35.563Z,23.78
2023-05-17T15:47:03.539Z,23.74
2023-05-17T15:49:30.506Z,23.71
2023-05-17T15:51:57.444Z,23.68
2023-05-17T15:54:24.144Z,23.59
2023-05-17T15:56:51.084Z,23.53
2023-05-17T15:59:17.800Z,23.50
2023-05-17T16:01:46.400Z,23.47
2023-05-17T16:04:13.860Z,23.43
2023-05-17T16:06:41.238Z,23.38
2023-05-17T16:09:08.597Z,23.35
2023-05-17T16:11:35.343Z,23.33
2023-05-17T16:14:02.200Z,23.31
2023-05-17T16:16:28.915Z,23.27
2023-05-17T16:18:55.855Z,23.26
2023-05-17T16:21:22.895Z,23.25
2023-05-17T16:23:49.657Z,23.26
2023-05-17T16:26:16.322Z,23.27
2023-05-17T16:28:43.013Z,23.26
2023-05-17T16:31:09.790Z,23.26
2023-05-17T16:33:36.726Z,23.26
2023-05-17T16:36:04.869Z,23.27
2023-05-17T16:38:31.537Z,23.27
2023-05-17T16:41:03.117Z,23.26
2023-05-17T16:43:31.057Z,23.23
2023-05-17T16:45:57.737Z,23.19
2023-05-17T16:48:24.609Z,23.17
2023-05-17T16:50:51.620Z,23.13
2023-05-17T16:53:18.986Z,23.10
2023-05-17T16:55:45.804Z,23.04
2023-05-17T16:58:13.259Z,22.94
2023-05-17T17:00:39.993Z,22.83
2023-05-17T17:03:09.469Z,22.72
2023-05-17T17:05:37.324Z,22.62
2023-05-17T17:08:04.189Z,22.49
2023-05-17T17:10:31.284Z,22.37
2023-05-17T17:12:58.340Z,22.24
2023-05-17T17:15:25.027Z,22.14
2023-05-17T17:17:52.479Z,22.05
2023-05-17T17:20:19.813Z,21.95
2023-05-17T17:22:47.009Z,21.86
2023-05-17T17:25:13.651Z,21.78
2023-05-17T17:27:40.497Z,21.68
2023-05-17T17:30:10.327Z,21.58
2023-05-17T17:32:37.137Z,21.48
2023-05-17T17:35:04.418Z,21.42
2023-05-17T17:37:31.249Z,21.33
2023-05-17T17:39:57.875Z,21.23
2023-05-17T17:42:24.557Z,21.15
2023-05-17T17:44:51.313Z,21.06
2023-05-17T17:47:18.050Z,20.96
2023-05-17T17:49:44.800Z,20.88
2023-05-17T17:52:11.457Z,20.80
2023-05-17T17:54:38.264Z,20.72
2023-05-17T17:57:05.390Z,20.63
2023-05-17T17:59:32.305Z,20.56
2023-05-17T18:01:59.842Z,20.48
2023-05-17T18:04:27.393Z,20.39
2023-05-17T18:06:55.042Z,20.32
2023-05-17T18:09:22.945Z,20.26
2023-05-17T18:11:49.734Z,20.20
2023-05-17T18:14:16.426Z,20.16
2023-05-17T18:16:43.342Z,20.10
2023-05-17T18:19:10.153Z,20.05
2023-05-17T18:21:36.925Z,19.98
2023-05-17T18:24:03.846Z,19.89
2023-05-17T18:26:30.654Z,19.81
2023-05-17T18:28:57.310Z,19.73
2023-05-17T18:31:23.966Z,19.67
2023-05-17T18:33:50.912Z,19.61
2023-05-17T18:36:17.615Z,19.54
2023-05-17T18:38:44.592Z,19.47
2023-05-17T18:41:11.375Z,19.40
2023-05-17T18:43:38.076Z,19.32
2023-05-17T18:46:04.730Z,19.26
2023-05-17T18:48:36.146Z,19.20
2023-05-17T18:51:03.069Z,19.12
2023-05-17T18:53:30.066Z,19.04
2023-05-17T18:56:01.523Z,18.95
2023-05-17T18:58:29.108Z,18.88
2023-05-17T19:00:56.065Z,18.81
2023-05-17T19:03:22.927Z,18.73
2023-05-17T19:05:49.617Z,18.66
2023-05-17T19:08:16.269Z,18.60
2023-05-17T19:10:42.960Z,18.52
2023-05-17T19:13:09.868Z,18.45
2023-05-17T19:15:36.646Z,18.39
2023-05-17T19:18:03.395Z,18.32
2023-05-17T19:20:30.888Z,18.25
2023-05-17T19:22:57.992Z,18.17
2023-05-17T19:25:24.701Z,18.08
2023-05-17T19:27:51.567Z,17.98
2023-05-17T19:30:18.740Z,17.85
2023-05-17T19:32:45.627Z,17.74
2023-05-17T19:35:12.423Z,17.67
2023-05-17T19:37:39.104Z,17.60
2023-05-17T19:40:06.558Z,17.51
2023-05-17T19:42:33.369Z,17.40
2023-05-17T19:45:00.064Z,17.32
2023-05-17T19:47:27.195Z,17.27
2023-05-17T19:49:53.973Z,17.22
2023-05-17T19:52:20.682Z,17.18
2023-05-17T19:54:47.793Z,17.13
2023-05-17T19:57:14.478Z,17.07
2023-05-17T19:59:42.088Z,17.03
2023-05-17T20:02:09.309Z,16.98
2023-05-17T20:04:36.264Z,16.94
2023-05-17T20:07:02.903Z,16.88
2023-05-17T20:09:32.036Z,16.82
2023-05-17T20:11:58.763Z,16.76
2023-05-17T20:14:26.955Z,16.69
2023-05-17T20:16:53.959Z,16.63
2023-05-17T20:19:20.942Z,16.57
2023-05-17T20:21:48.263Z,16.50
2023-05-17T20:24:14.993Z,16.42
2023-05-17T20:26:44.985Z,16.35
2023-05-17T20:29:12.176Z,16.27
2023-05-17T20:31:38.902Z,16.20
2023-05-17T20:34:06.585Z,16.12
2023-05-17T20:36:33.786Z,16.03
2023-05-17T20:39:00.806Z,15.96
2023-05-17T20:41:27.613Z,15.88
2023-05-17T20:43:54.652Z,15.82
2023-05-17T20:46:21.596Z,15.75
2023-05-17T20:48:49.915Z,15.68
2023-05-17T20:51:18.172Z,15.63
2023-05-17T20:53:46.414Z,15.58
2023-05-17T20:56:14.299Z,15.54
2023-05-17T20:58:41.329Z,15.48
2023-05-17T21:01:08.168Z,15.40
2023-05-17T21:03:35.131Z,15.33
2023-05-17T21:06:02.143Z,15.27
2023-05-17T21:08:29.160Z,15.22
2023-05-17T21:10:56.171Z,15.16
2023-05-17T21:13:25.720Z,15.12
2023-05-17T21:15:55.907Z,15.05
2023-05-17T21:18:23.730Z,14.98
2023-05-17T21:20:51.131Z,14.92
2023-05-17T21:23:18.391Z,14.84
2023-05-17T21:25:45.066Z,14.78
2023-05-17T21:31:09.344Z,14.69
2023-05-17T21:33:36.194Z,14.61
2023-05-17T21:36:03.289Z,14.57
2023-05-17T21:38:30.133Z,14.54
2023-05-17T21:40:56.764Z,14.48
2023-05-17T21:43:23.464Z,14.41
2023-05-17T21:45:50.160Z,14.36
2023-05-17T21:48:16.857Z,14.29
2023-05-17T21:50:43.528Z,14.25
2023-05-17T21:53:10.371Z,14.22
2023-05-17T21:55:56.280Z,14.16
2023-05-17T21:58:23.785Z,14.10
2023-05-17T22:00:50.582Z,14.05
2023-05-17T22:03:17.348Z,14.01
2023-05-17T22:05:44.067Z,13.95
2023-05-17T22:08:10.739Z,13.91
2023-05-17T22:10:37.413Z,13.87
2023-05-17T22:13:06.212Z,13.83
2023-05-17T22:15:33.151Z,13.77
2023-05-17T22:18:03.324Z,13.72
2023-05-17T22:20:30.527Z,13.65
2023-05-17T22:22:57.664Z,13.60
2023-05-17T22:25:24.307Z,13.54
2023-05-17T22:27:51.142Z,13.50
2023-05-17T22:30:17.851Z,13.46
2023-05-17T22:32:44.548Z,13.42
2023-05-17T22:35:11.328Z,13.39
2023-05-17T22:37:38.238Z,13.34
2023-05-17T22:40:06.637Z,13.30
2023-05-17T22:42:33.320Z,13.26
2023-05-17T22:45:00.195Z,13.23
2023-05-17T22:47:27.219Z,13.19
2023-05-17T22:49:53.887Z,13.14
2023-05-17T22:52:20.709Z,13.09
2023-05-17T22:54:47.421Z,13.05
2023-05-17T22:57:14.236Z,13.01
2023-05-17T22:59:43.862Z,12.96
2023-05-17T23:02:11.882Z,12.92
2023-05-17T23:04:40.011Z,12.88
2023-05-17T23:07:10.125Z,12.84
2023-05-17T23:09:40.741Z,12.78
2023-05-17T23:12:09.059Z,12.72
2023-05-17T23:14:36.444Z,12.67
2023-05-17T23:17:04.175Z,12.64
2023-05-17T23:19:31.592Z,12.61
2023-05-17T23:22:02.816Z,12.58
2023-05-17T23:24:29.583Z,12.56
2023-05-17T23:26:56.277Z,12.53
2023-05-17T23:29:24.050Z,12.48
2023-05-17T23:31:50.927Z,12.44
2023-05-17T23:34:17.750Z,12.40
2023-05-17T23:36:44.428Z,12.37
2023-05-17T23:39:11.133Z,12.35
2023-05-17T23:41:37.871Z,12.31
2023-05-17T23:44:05.208Z,12.29
2023-05-17T23:46:32.100Z,12.25
2023-05-17T23:48:58.791Z,12.20
2023-05-17T23:51:25.518Z,12.15
2023-05-17T23:53:52.480Z,12.13
2023-05-17T23:56:19.426Z,12.10
2023-05-17T23:58:46.318Z,12.06
